METAR Data
IDs: Format: Raw Decoded Include TAF

Data at: 0837 UTC 18 Nov 2018

PAKP 180756Z AUTO 19012KT 10SM OVC100 M07/M11 A2956 RMK AO2 SLP064 T10721111 FZRANO
PAKP 180656Z AUTO 17010KT 10SM OVC090 M07/M11 A2956 RMK AO2 SLP065 T10671111 FZRANO
PAKP 180556Z AUTO 18013KT 10SM OVC100 M07/M11 A2957 RMK AO2 SLP068 T10721111 11072 21083 58006 FZRANO
PAKP 180456Z AUTO 18012KT 10SM BKN110 M08/M12 A2957 RMK AO2 SLP070 T10781117 FZRANO
PAKP 180356Z AUTO 17010KT 10SM FEW120 M07/M11 A2958 RMK AO2 SLP072 T10721111 FZRANO
PAKP 180256Z AUTO 19008KT 10SM CLR M08/M12 A2958 RMK AO2 SLP074 T10781117 56008 FZRANO
PAKP 180156Z AUTO 18010KT 10SM CLR M08/M12 A2959 RMK AO2 SLP074 T10781117 FZRANO
PAKP 180056Z AUTO 18011KT 10SM CLR M07/M12 A2960 RMK AO2 SLP078 T10721117 FZRANO
PAKP 172356Z AUTO 18010KT 10SM CLR M07/M12 A2961 RMK AO2 SLP082 T10721117 11072 21094 58005 FZRANO
PAKP 172256Z AUTO 18011KT 10SM FEW120 M08/M12 A2962 RMK AO2 SLP086 T10781117 FZRANO
PAKP 172156Z AUTO 18011KT 10SM SCT120 M08/M12 A2962 RMK AO2 SLP085 T10781122 FZRANO
PAKP 172056Z AUTO 19014KT 10SM OVC120 M08/M12 A2963 RMK AO2 SLP089 T10781122 56012 FZRANO
PAKP 171956Z AUTO 19011KT 10SM OVC120 M08/M12 A2963 RMK AO2 SLP091 T10781122 FZRANO
PAKP 171856Z AUTO 20007KT 10SM SCT120 M09/M13 A2964 RMK AO2 SLP093 T10891128 FZRANO
PAKP 171756Z AUTO 19007KT 10SM CLR M09/M14 A2966 RMK AO2 SLP103 T10941139 11083 21106 56008 FZRANO
PAKP 171656Z AUTO 18011KT 10SM CLR M09/M14 A2967 RMK AO2 SLP105 T10941139 FZRANO
PAKP 171556Z AUTO 18010KT 10SM CLR M09/M14 A2968 RMK AO2 SLP111 T10941144 FZRANO
PAKP 171456Z AUTO 19012KT 10SM FEW060 M09/M14 A2969 RMK AO2 SLP114 T10891144 58017 FZRANO
PAKP 171356Z AUTO 19011KT 10SM FEW110 M09/M15 A2971 RMK AO2 SLP120 T10891150 FZRANO
PAKP 171256Z AUTO 19011KT 10SM BKN070 BKN110 M08/M16 A2973 RMK AO2 SLP125 T10831156 FZRANO
PAKP 171156Z AUTO 17011KT 10SM OVC070 M09/M15 A2974 RMK AO2 SLP132 T10891150 11078 21100 58017 FZRANO
PAKP 171056Z AUTO 17012KT 10SM FEW090 BKN120 M09/M16 A2976 RMK AO2 SLP138 T10891156 FZRANO
PAKP 170956Z AUTO 18007KT 10SM OVC070 M08/M16 A2978 RMK AO2 SLP147 T10831156 FZRANO
PAKP 170856Z AUTO 18007KT 10SM OVC070 M09/M16 A2980 RMK AO2 SLP151 T10891161 410781233 56015 FZRANO
PAKP 170756Z AUTO 19010KT 10SM BKN065 OVC075 M09/M17 A2981 RMK AO2 SLP156 T10891167 FZRANO
PAKP 170656Z AUTO 19010KT 10SM FEW065 BKN100 OVC120 M09/M16 A2982 RMK AO2 SLP163 T10891161 FZRANO
PAKP 170556Z AUTO 18012KT 10SM BKN075 OVC090 M10/M17 A2984 RMK AO2 SLP172 T11001167 11089 21122 58018 FZRANO
PAKP 170456Z AUTO 18009KT 10SM OVC100 M10/M17 A2986 RMK AO2 SLP183 T11001172 FZRANO
PAKP 170356Z AUTO 17010KT 10SM OVC100 M11/M18 A2989 RMK AO2 SLP193 T11061178 FZRANO
PAKP 170256Z AUTO 17012KT 10SM FEW100 M12/M18 A2990 RMK AO2 SLP198 T11171183 56020 FZRANO
PAKP 170156Z AUTO 17014KT 10SM FEW110 M12/M19 A2992 RMK AO2 SLP208 T11171189 FZRANO
PAKP 170056Z AUTO 20013G19KT 10SM BKN120 M11/M19 A2993 RMK AO2 SLP212 T11111189 FZRANO
PAKP 162356Z AUTO 17008KT 10SM SCT120 M12/M18 A2996 RMK AO2 SLP221 T11171183 11117 21161 58018 FZRANO
PAKP 162256Z AUTO 18012KT 10SM CLR M12/M19 A2997 RMK AO2 SLP225 T11171189 FZRANO
PAKP 162156Z AUTO 19011KT 10SM CLR M13/M19 A3000 RMK AO2 SLP233 T11281189 FZRANO
PAKP 162056Z AUTO 18010KT 10SM CLR M13/M19 A3001 RMK AO2 SLP241 T11281189 58009 FZRANO